createdAt,value
2023-03-03T00:00:46.278Z,100.00
2023-03-03T00:01:47.922Z,100.00
2023-03-03T00:02:51.962Z,100.00
2023-03-03T00:03:53.631Z,100.00
2023-03-03T00:04:56.238Z,100.00
2023-03-03T00:05:57.906Z,100.00
2023-03-03T00:07:00.514Z,100.00
2023-03-03T00:08:02.335Z,100.00
2023-03-03T00:09:04.997Z,100.00
2023-03-03T00:10:08.063Z,100.00
2023-03-03T00:11:10.785Z,100.00
2023-03-03T00:12:20.972Z,100.00
2023-03-03T00:13:24.422Z,100.00
2023-03-03T00:14:28.455Z,100.00
2023-03-03T00:15:31.062Z,100.00
2023-03-03T00:16:35.547Z,100.00
2023-03-03T00:17:38.152Z,100.00
2023-03-03T00:18:43.279Z,100.00
2023-03-03T00:19:47.365Z,100.00
2023-03-03T00:20:50.015Z,100.00
2023-03-03T00:21:52.939Z,100.00
2023-03-03T00:22:54.756Z,100.00
2023-03-03T00:24:04.274Z,100.00
2023-03-03T00:25:25.624Z,100.00
2023-03-03T00:26:31.057Z,100.00
2023-03-03T00:27:36.118Z,100.00
2023-03-03T00:28:43.536Z,100.00
2023-03-03T00:29:48.182Z,100.00
2023-03-03T00:30:50.281Z,100.00
2023-03-03T00:31:53.028Z,100.00
2023-03-03T00:32:55.551Z,100.00
2023-03-03T00:34:11.397Z,100.00
2023-03-03T00:35:23.766Z,100.00
2023-03-03T00:39:41.029Z,100.00
2023-03-03T00:40:42.737Z,100.00
2023-03-03T00:41:45.267Z,100.00
2023-03-03T00:42:48.974Z,100.00
2023-03-03T00:43:51.689Z,100.00
2023-03-03T00:44:56.948Z,100.00
2023-03-03T00:45:59.513Z,100.00
2023-03-03T00:47:03.091Z,100.00
2023-03-03T00:48:21.194Z,100.00
2023-03-03T00:49:26.010Z,100.00
2023-03-03T00:50:33.097Z,100.00
2023-03-03T00:51:35.675Z,100.00
2023-03-03T00:52:39.305Z,100.00
2023-03-03T00:53:41.817Z,100.00
2023-03-03T00:54:43.416Z,100.00
2023-03-03T00:55:46.529Z,100.00
2023-03-03T00:56:48.097Z,100.00
2023-03-03T00:57:50.598Z,100.00
2023-03-03T00:58:52.229Z,100.00
2023-03-03T00:59:54.768Z,100.00
2023-03-03T01:00:56.570Z,100.00
2023-03-03T01:01:59.256Z,100.00
2023-03-03T01:03:02.952Z,100.00
2023-03-03T01:04:05.709Z,100.00
2023-03-03T01:05:08.963Z,100.00
2023-03-03T01:06:11.992Z,100.00
2023-03-03T01:07:13.512Z,100.00
2023-03-03T01:08:16.003Z,100.00
2023-03-03T01:09:17.593Z,100.00
2023-03-03T01:10:20.107Z,100.00
2023-03-03T01:11:22.991Z,100.00
2023-03-03T01:12:25.478Z,100.00
2023-03-03T01:13:28.875Z,100.00
2023-03-03T01:14:31.440Z,100.00
2023-03-03T01:15:32.986Z,100.00
2023-03-03T01:16:35.467Z,100.00
2023-03-03T01:17:37.037Z,100.00
2023-03-03T01:18:40.216Z,100.00
2023-03-03T01:19:41.759Z,100.00
2023-03-03T01:20:45.590Z,100.00
2023-03-03T01:21:47.187Z,100.00
2023-03-03T01:22:49.673Z,100.00
2023-03-03T01:23:51.238Z,100.00
2023-03-03T01:24:53.825Z,100.00
2023-03-03T01:25:55.359Z,100.00
2023-03-03T01:26:57.847Z,100.00
2023-03-03T01:27:59.429Z,100.00
2023-03-03T01:29:01.886Z,100.00
2023-03-03T01:30:03.914Z,100.00
2023-03-03T01:31:06.476Z,100.00
2023-03-03T01:32:08.107Z,100.00
2023-03-03T01:33:10.633Z,100.00
2023-03-03T01:34:12.155Z,100.00
2023-03-03T01:35:14.774Z,100.00
2023-03-03T01:36:22.577Z,100.00
2023-03-03T01:37:25.091Z,100.00
2023-03-03T01:38:26.605Z,100.00
2023-03-03T01:39:29.099Z,100.00
2023-03-03T01:40:31.898Z,100.00
2023-03-03T01:41:33.572Z,100.00
2023-03-03T01:42:36.132Z,100.00
2023-03-03T01:43:43.208Z,100.00
2023-03-03T01:44:45.859Z,100.00
2023-03-03T01:46:20.604Z,100.00
2023-03-03T01:47:23.200Z,100.00
2023-03-03T01:48:25.755Z,100.00
2023-03-03T01:49:29.588Z,100.00
2023-03-03T01:50:41.023Z,100.00
2023-03-03T01:51:48.295Z,100.00
2023-03-03T01:52:49.832Z,100.00
2023-03-03T01:53:53.750Z,100.00
2023-03-03T01:54:57.511Z,100.00
2023-03-03T01:56:00.000Z,100.00
2023-03-03T01:57:02.910Z,100.00
2023-03-03T01:58:07.083Z,100.00
2023-03-03T01:59:10.495Z,100.00
2023-03-03T02:00:13.889Z,100.00
2023-03-03T02:01:17.634Z,100.00
2023-03-03T02:02:20.102Z,100.00
2023-03-03T02:03:22.134Z,100.00
2023-03-03T02:04:26.346Z,100.00
2023-03-03T02:05:27.857Z,100.00
2023-03-03T02:06:32.202Z,100.00
2023-03-03T02:07:35.147Z,100.00
2023-03-03T02:08:40.269Z,100.00
2023-03-03T02:09:46.476Z,100.00
2023-03-03T02:10:48.938Z,100.00
2023-03-03T02:11:51.146Z,100.00
2023-03-03T02:12:54.790Z,100.00
2023-03-03T02:13:56.298Z,100.00
2023-03-03T02:14:58.796Z,100.00
2023-03-03T02:16:00.851Z,100.00
2023-03-03T02:17:03.329Z,100.00
2023-03-03T02:18:05.984Z,100.00
2023-03-03T02:19:11.696Z,100.00
2023-03-03T02:20:15.352Z,100.00
2023-03-03T02:21:19.166Z,100.00
2023-03-03T02:22:22.668Z,100.00
2023-03-03T02:23:28.586Z,100.00
2023-03-03T02:24:33.429Z,100.00
2023-03-03T02:25:40.435Z,100.00
2023-03-03T02:26:43.292Z,100.00
2023-03-03T02:27:45.782Z,100.00
2023-03-03T02:28:47.335Z,100.00
2023-03-03T02:29:49.947Z,100.00
2023-03-03T02:30:54.419Z,100.00
2023-03-03T02:31:56.927Z,100.00
2023-03-03T02:32:58.521Z,100.00
2023-03-03T02:34:01.001Z,100.00
2023-03-03T02:35:17.474Z,100.00
2023-03-03T02:36:20.944Z,100.00
2023-03-03T02:37:22.565Z,100.00
2023-03-03T02:38:26.751Z,100.00
2023-03-03T02:39:30.447Z,100.00
2023-03-03T02:40:34.436Z,100.00
2023-03-03T02:41:38.510Z,100.00
2023-03-03T02:42:42.326Z,100.00
2023-03-03T02:43:47.048Z,100.00
2023-03-03T02:44:49.614Z,100.00
2023-03-03T02:45:51.319Z,100.00
2023-03-03T02:46:54.602Z,100.00
2023-03-03T02:47:56.162Z,100.00
2023-03-03T02:48:58.680Z,100.00
2023-03-03T02:50:00.272Z,100.00
2023-03-03T02:51:02.751Z,100.00
2023-03-03T02:52:05.627Z,100.00
2023-03-03T02:53:08.102Z,100.00
2023-03-03T02:54:10.402Z,100.00
2023-03-03T02:55:12.880Z,100.00
2023-03-03T02:56:14.414Z,100.00
2023-03-03T02:57:16.912Z,100.00
2023-03-03T02:58:19.760Z,100.00
2023-03-03T02:59:22.239Z,100.00
2023-03-03T03:00:23.739Z,100.00
2023-03-03T03:01:26.314Z,100.00
2023-03-03T03:02:27.878Z,100.00
2023-03-03T03:03:30.364Z,100.00
2023-03-03T03:04:31.938Z,100.00
2023-03-03T03:05:34.453Z,100.00
2023-03-03T03:06:36.081Z,100.00
2023-03-03T03:07:38.553Z,100.00
2023-03-03T03:08:40.064Z,100.00
2023-03-03T03:09:42.734Z,100.00
2023-03-03T03:10:44.582Z,100.00
2023-03-03T03:11:47.065Z,100.00
2023-03-03T03:12:48.582Z,100.00
2023-03-03T03:13:52.823Z,100.00
2023-03-03T03:14:54.326Z,100.00
2023-03-03T03:15:56.805Z,100.00
2023-03-03T03:16:58.399Z,100.00
2023-03-03T03:18:00.974Z,100.00
2023-03-03T03:19:03.072Z,100.00
2023-03-03T03:20:06.296Z,100.00
2023-03-03T03:21:08.960Z,100.00
2023-03-03T03:22:11.464Z,100.00
2023-03-03T03:23:13.007Z,100.00
2023-03-03T03:24:15.502Z,100.00
2023-03-03T03:25:17.012Z,100.00
2023-03-03T03:26:20.968Z,100.00
2023-03-03T03:27:23.376Z,100.00
2023-03-03T03:28:25.883Z,100.00
2023-03-03T03:29:28.761Z,100.00
2023-03-03T03:30:31.337Z,100.00
2023-03-03T03:31:33.842Z,100.00
2023-03-03T03:32:35.357Z,100.00
2023-03-03T03:33:37.867Z,100.00
2023-03-03T03:34:39.389Z,100.00
2023-03-03T03:35:45.494Z,100.00
2023-03-03T03:36:47.056Z,100.00
2023-03-03T03:37:49.523Z,100.00
2023-03-03T03:38:52.260Z,100.00
2023-03-03T03:39:54.973Z,100.00
2023-03-03T03:40:56.665Z,100.00
2023-03-03T03:41:59.188Z,100.00
2023-03-03T03:43:00.704Z,100.00
2023-03-03T03:44:03.163Z,100.00
2023-03-03T03:45:07.524Z,100.00
2023-03-03T03:46:10.174Z,100.00
2023-03-03T03:47:11.721Z,100.00
2023-03-03T03:48:14.208Z,100.00
2023-03-03T03:49:15.724Z,100.00
2023-03-03T03:50:18.374Z,100.00
2023-03-03T03:51:19.931Z,100.00
2023-03-03T03:52:22.403Z,100.00
2023-03-03T03:53:23.920Z,100.00
2023-03-03T03:54:26.500Z,100.00
2023-03-03T03:55:28.524Z,100.00
2023-03-03T03:56:31.002Z,100.00
2023-03-03T03:57:32.512Z,100.00
2023-03-03T03:58:35.017Z,100.00
2023-03-03T03:59:36.529Z,100.00
2023-03-03T04:00:42.841Z,100.00
2023-03-03T04:01:44.444Z,100.00
2023-03-03T04:02:46.970Z,100.00
2023-03-03T04:03:49.013Z,100.00
2023-03-03T04:04:51.514Z,100.00
2023-03-03T04:05:53.478Z,100.00
2023-03-03T04:06:55.990Z,100.00
2023-03-03T04:07:57.523Z,100.00
2023-03-03T04:09:00.040Z,100.00
2023-03-03T04:10:01.538Z,100.00
2023-03-03T04:11:04.001Z,100.00
2023-03-03T04:12:05.800Z,100.00
2023-03-03T04:13:08.284Z,100.00
2023-03-03T04:14:09.788Z,100.00
2023-03-03T04:15:13.527Z,100.00
2023-03-03T04:16:16.375Z,100.00
2023-03-03T04:17:18.851Z,100.00
2023-03-03T04:18:20.349Z,100.00
2023-03-03T04:19:22.823Z,100.00
2023-03-03T04:20:24.333Z,100.00
2023-03-03T04:21:27.799Z,100.00
2023-03-03T04:22:30.056Z,100.00
2023-03-03T04:23:32.525Z,100.00
2023-03-03T04:24:34.063Z,100.00
2023-03-03T04:25:36.530Z,100.00
2023-03-03T04:26:38.039Z,100.00
2023-03-03T04:27:40.504Z,100.00
2023-03-03T04:28:42.033Z,100.00
2023-03-03T04:29:44.496Z,100.00
2023-03-03T04:30:46.092Z,100.00
2023-03-03T04:31:49.908Z,100.00
2023-03-03T04:32:53.107Z,100.00
2023-03-03T04:33:55.571Z,100.00
2023-03-03T04:35:07.201Z,100.00
2023-03-03T04:36:10.784Z,100.00
2023-03-03T04:37:12.324Z,100.00
2023-03-03T04:38:14.781Z,100.00
2023-03-03T04:39:16.301Z,100.00
2023-03-03T04:40:18.938Z,100.00
2023-03-03T04:41:20.445Z,100.00
2023-03-03T04:42:22.912Z,100.00
2023-03-03T04:43:24.426Z,100.00
2023-03-03T04:44:26.893Z,100.00
2023-03-03T04:45:28.402Z,100.00
2023-03-03T04:46:30.893Z,100.00
2023-03-03T04:47:33.780Z,100.00
2023-03-03T04:48:36.305Z,100.00
2023-03-03T04:49:38.397Z,100.00
2023-03-03T04:50:40.868Z,100.00
2023-03-03T04:51:42.378Z,100.00
2023-03-03T04:52:44.860Z,100.00
2023-03-03T04:53:46.400Z,100.00
2023-03-03T04:54:48.862Z,100.00
2023-03-03T04:55:50.833Z,100.00
2023-03-03T04:56:53.299Z,100.00
2023-03-03T04:57:54.807Z,100.00
2023-03-03T04:58:57.270Z,100.00
2023-03-03T04:59:58.828Z,100.00
2023-03-03T05:01:01.312Z,100.00
2023-03-03T05:02:04.460Z,100.00
2023-03-03T05:03:08.308Z,100.00
2023-03-03T05:04:09.970Z,100.00
2023-03-03T05:05:13.635Z,100.00
2023-03-03T05:06:18.654Z,100.00
2023-03-03T05:07:20.837Z,100.00
2023-03-03T05:08:23.456Z,100.00
2023-03-03T05:09:25.021Z,100.00
2023-03-03T05:10:27.611Z,100.00
2023-03-03T05:11:29.127Z,100.00
2023-03-03T05:12:31.583Z,100.00
2023-03-03T05:13:33.088Z,100.00
2023-03-03T05:14:35.545Z,100.00
2023-03-03T05:15:37.241Z,100.00
2023-03-03T05:16:39.708Z,100.00
2023-03-03T05:17:41.229Z,100.00
2023-03-03T05:18:45.486Z,100.00
2023-03-03T05:19:47.022Z,100.00
2023-03-03T05:20:49.526Z,100.00
2023-03-03T05:21:51.046Z,100.00
2023-03-03T05:22:53.532Z,100.00
2023-03-03T05:23:55.030Z,100.00
2023-03-03T05:24:57.565Z,100.00
2023-03-03T05:25:59.145Z,100.00
2023-03-03T05:27:01.684Z,100.00
2023-03-03T05:28:04.576Z,100.00
2023-03-03T05:29:07.218Z,100.00
2023-03-03T05:30:09.914Z,100.00
2023-03-03T05:31:12.647Z,100.00
2023-03-03T05:32:14.177Z,100.00
2023-03-03T05:33:17.234Z,100.00
2023-03-03T05:34:20.081Z,100.00
2023-03-03T05:35:23.294Z,100.00
2023-03-03T05:36:24.848Z,100.00
2023-03-03T05:37:27.373Z,100.00
2023-03-03T05:38:28.893Z,100.00
2023-03-03T05:39:31.355Z,100.00
2023-03-03T05:40:32.863Z,100.00
2023-03-03T05:41:36.810Z,100.00
2023-03-03T05:42:38.386Z,100.00
2023-03-03T05:43:40.884Z,100.00
2023-03-03T05:44:42.627Z,100.00
2023-03-03T05:45:45.086Z,100.00
2023-03-03T05:46:46.648Z,100.00
2023-03-03T05:47:49.344Z,100.00
2023-03-03T05:48:50.847Z,100.00
2023-03-03T05:49:54.689Z,100.00
2023-03-03T05:50:59.074Z,100.00
2023-03-03T05:52:00.616Z,100.00
2023-03-03T05:53:03.087Z,100.00
2023-03-03T05:54:04.728Z,100.00
2023-03-03T05:55:08.087Z,100.00
2023-03-03T05:56:09.580Z,100.00
2023-03-03T05:57:12.079Z,100.00
2023-03-03T05:58:13.620Z,100.00
2023-03-03T05:59:16.125Z,100.00
2023-03-03T06:00:18.571Z,100.00
2023-03-03T06:01:22.099Z,100.00
2023-03-03T06:02:23.617Z,100.00
2023-03-03T06:03:26.073Z,100.00
2023-03-03T06:04:27.649Z,100.00
2023-03-03T06:05:31.475Z,100.00
2023-03-03T06:06:33.162Z,100.00
2023-03-03T06:07:35.732Z,100.00
2023-03-03T06:08:37.234Z,100.00
2023-03-03T06:09:39.819Z,100.00
2023-03-03T06:10:41.357Z,100.00
2023-03-03T06:11:43.827Z,100.00
2023-03-03T06:12:45.362Z,100.00
2023-03-03T06:13:47.829Z,100.00
2023-03-03T06:14:49.386Z,100.00
2023-03-03T06:15:51.848Z,100.00
2023-03-03T06:16:53.364Z,100.00
2023-03-03T06:17:55.837Z,100.00
2023-03-03T06:18:57.422Z,100.00
2023-03-03T06:19:59.902Z,100.00
2023-03-03T06:21:02.903Z,100.00
2023-03-03T06:22:05.394Z,100.00
2023-03-03T06:23:06.921Z,100.00
2023-03-03T06:24:09.479Z,100.00
2023-03-03T06:25:11.001Z,100.00
2023-03-03T06:26:13.466Z,100.00
2023-03-03T06:27:14.994Z,100.00
2023-03-03T06:28:17.457Z,100.00
2023-03-03T06:29:19.074Z,100.00
2023-03-03T06:30:21.766Z,100.00
2023-03-03T06:31:23.306Z,100.00
2023-03-03T06:32:25.823Z,100.00
2023-03-03T06:33:28.305Z,100.00
2023-03-03T06:34:29.811Z,100.00
2023-03-03T06:35:32.318Z,100.00
2023-03-03T06:36:35.181Z,100.00
2023-03-03T06:37:37.678Z,100.00
2023-03-03T06:38:39.213Z,100.00
2023-03-03T06:39:41.714Z,100.00
2023-03-03T06:40:43.242Z,100.00
2023-03-03T06:41:45.713Z,100.00
2023-03-03T06:42:47.221Z,100.00
2023-03-03T06:43:49.694Z,100.00
2023-03-03T06:44:51.206Z,100.00
2023-03-03T06:45:53.784Z,100.00
2023-03-03T06:46:57.235Z,100.00
2023-03-03T06:47:59.710Z,100.00
2023-03-03T06:49:01.258Z,100.00
2023-03-03T06:50:03.724Z,100.00
2023-03-03T06:51:14.976Z,100.00
2023-03-03T06:52:21.410Z,100.00
2023-03-03T06:53:22.930Z,100.00
2023-03-03T06:54:30.709Z,100.00
2023-03-03T06:55:33.548Z,100.00
2023-03-03T06:56:35.801Z,100.00
2023-03-03T06:57:38.315Z,100.00
2023-03-03T06:58:39.947Z,100.00
2023-03-03T06:59:42.411Z,100.00
2023-03-03T07:00:44.428Z,100.00
2023-03-03T07:01:48.013Z,100.00
2023-03-03T07:02:51.482Z,100.00
2023-03-03T07:03:53.995Z,100.00
2023-03-03T07:04:55.658Z,100.00
2023-03-03T07:05:58.121Z,100.00
2023-03-03T07:07:00.669Z,100.00
2023-03-03T07:08:04.953Z,100.00
2023-03-03T07:09:09.040Z,100.00
2023-03-03T07:10:19.450Z,100.00
2023-03-03T07:11:22.133Z,100.00
2023-03-03T07:12:25.479Z,100.00
2023-03-03T07:13:27.827Z,100.00
2023-03-03T07:14:30.734Z,100.00
2023-03-03T07:15:34.209Z,100.00
2023-03-03T07:16:36.756Z,100.00
2023-03-03T07:17:38.365Z,100.00
2023-03-03T07:18:42.252Z,100.00
2023-03-03T07:19:44.026Z,100.00
2023-03-03T07:20:46.501Z,100.00
2023-03-03T07:21:48.993Z,100.00
2023-03-03T07:22:51.526Z,100.00
2023-03-03T07:23:54.394Z,100.00
2023-03-03T07:24:58.998Z,100.00
2023-03-03T07:26:00.505Z,100.00
2023-03-03T07:27:10.325Z,100.00
2023-03-03T07:28:15.836Z,100.00
2023-03-03T07:29:22.221Z,100.00
2023-03-03T07:30:28.277Z,100.00
2023-03-03T07:31:31.557Z,100.00
2023-03-03T07:32:38.450Z,100.00
2023-03-03T07:33:43.413Z,100.00
2023-03-03T07:34:46.263Z,100.00
2023-03-03T07:35:48.855Z,100.00
2023-03-03T07:36:51.755Z,100.00
2023-03-03T07:37:53.429Z,100.00
2023-03-03T07:38:59.096Z,100.00
2023-03-03T07:40:00.752Z,100.00
2023-03-03T07:41:04.125Z,100.00
2023-03-03T07:42:20.187Z,100.00
2023-03-03T07:43:38.011Z,100.00
2023-03-03T07:44:39.952Z,100.00
2023-03-03T07:45:43.079Z,100.00
2023-03-03T07:46:45.941Z,100.00
2023-03-03T07:47:47.617Z,100.00
2023-03-03T07:48:50.204Z,100.00
2023-03-03T07:49:52.403Z,100.00
2023-03-03T07:50:55.107Z,100.00
2023-03-03T07:51:58.348Z,100.00
2023-03-03T07:53:01.349Z,100.00
2023-03-03T07:54:15.862Z,100.00
2023-03-03T07:55:24.974Z,100.00
2023-03-03T07:56:30.073Z,100.00
2023-03-03T07:57:35.494Z,100.00
2023-03-03T07:58:39.296Z,99.59
2023-03-03T07:59:51.028Z,98.63
2023-03-03T08:01:29.082Z,99.68
2023-03-03T08:02:40.062Z,100.00
2023-03-03T08:03:42.456Z,100.00
2023-03-03T08:04:50.642Z,100.00
2023-03-03T08:05:52.587Z,100.00
2023-03-03T08:06:55.982Z,100.00
2023-03-03T08:08:03.164Z,100.00
2023-03-03T08:09:41.594Z,100.00
2023-03-03T08:10:45.515Z,100.00
2023-03-03T08:11:49.337Z,100.00
2023-03-03T08:12:51.805Z,100.00
2023-03-03T08:13:54.432Z,100.00
2023-03-03T08:14:55.989Z,100.00
2023-03-03T08:16:00.977Z,100.00
2023-03-03T08:17:02.624Z,100.00
2023-03-03T08:18:16.672Z,100.00
2023-03-03T08:19:18.210Z,100.00
2023-03-03T08:20:46.104Z,100.00
2023-03-03T08:21:48.594Z,100.00
2023-03-03T08:22:50.103Z,100.00
2023-03-03T08:23:53.610Z,100.00
2023-03-03T08:24:56.543Z,100.00
2023-03-03T08:25:59.050Z,100.00
2023-03-03T08:27:00.559Z,95.34
2023-03-03T08:28:03.028Z,94.51
2023-03-03T08:29:05.514Z,91.72
2023-03-03T08:30:08.170Z,92.12
2023-03-03T08:31:20.218Z,88.74
2023-03-03T08:32:26.719Z,89.18
2023-03-03T08:33:29.288Z,88.96
2023-03-03T08:34:30.796Z,87.05
2023-03-03T08:35:34.393Z,89.17
2023-03-03T08:36:36.912Z,90.77
2023-03-03T08:37:38.425Z,91.36
2023-03-03T08:38:41.071Z,92.29
2023-03-03T08:39:42.918Z,93.22
2023-03-03T08:40:49.645Z,94.66
2023-03-03T08:41:51.158Z,95.91
2023-03-03T08:42:54.303Z,95.46
2023-03-03T08:43:56.835Z,95.57
2023-03-03T08:44:58.377Z,96.45
2023-03-03T08:46:02.297Z,97.05
2023-03-03T08:47:04.016Z,96.75
2023-03-03T08:48:07.567Z,96.88
2023-03-03T08:49:09.126Z,97.65
2023-03-03T08:50:11.885Z,96.27
2023-03-03T08:51:13.395Z,95.95
2023-03-03T08:52:15.865Z,96.19
2023-03-03T08:53:18.998Z,97.83
2023-03-03T08:54:20.530Z,97.23
2023-03-03T08:55:23.045Z,97.25
2023-03-03T08:56:27.127Z,95.77
2023-03-03T08:57:28.648Z,96.31
2023-03-03T08:58:35.486Z,96.40
2023-03-03T08:59:39.011Z,97.36
2023-03-03T09:00:41.951Z,98.00
2023-03-03T09:01:45.407Z,96.87
2023-03-03T09:02:48.156Z,96.09
2023-03-03T09:03:50.639Z,94.85
2023-03-03T09:04:52.282Z,95.06
2023-03-03T09:05:54.979Z,93.38
2023-03-03T09:06:57.574Z,93.39
2023-03-03T09:08:00.658Z,92.29
2023-03-03T09:09:02.764Z,93.35
2023-03-03T09:10:06.068Z,94.82
2023-03-03T09:11:11.409Z,94.55
2023-03-03T09:12:16.125Z,93.86
2023-03-03T09:13:20.076Z,91.98
2023-03-03T09:14:21.604Z,92.62
2023-03-03T09:15:25.047Z,90.94
2023-03-03T09:16:28.227Z,88.92
2023-03-03T09:17:31.185Z,90.79
2023-03-03T09:18:36.521Z,91.10
2023-03-03T09:19:38.057Z,91.19
2023-03-03T09:20:40.935Z,91.65
2023-03-03T09:21:42.470Z,91.88
2023-03-03T09:22:44.939Z,91.64
2023-03-03T09:23:49.897Z,91.71
2023-03-03T09:24:54.805Z,91.10
2023-03-03T09:25:56.468Z,90.73
2023-03-03T09:26:59.494Z,91.14
2023-03-03T09:28:02.479Z,89.32
2023-03-03T09:29:31.638Z,89.90
2023-03-03T09:30:38.595Z,90.17
2023-03-03T09:31:43.483Z,90.80
2023-03-03T09:32:45.820Z,88.13
2023-03-03T09:33:49.709Z,88.21
2023-03-03T09:34:52.024Z,87.91
2023-03-03T09:35:55.403Z,89.66
2023-03-03T09:36:57.357Z,89.23
2023-03-03T09:37:59.864Z,89.57
2023-03-03T09:39:01.476Z,87.26
2023-03-03T09:40:14.987Z,88.13
2023-03-03T09:41:54.338Z,86.58
2023-03-03T09:43:00.600Z,87.12
2023-03-03T09:44:14.034Z,85.65
2023-03-03T09:45:35.856Z,86.16
2023-03-03T09:46:40.207Z,85.48
2023-03-03T09:47:52.013Z,84.65
2023-03-03T09:48:59.279Z,82.92
2023-03-03T09:50:06.485Z,82.49
2023-03-03T09:51:23.127Z,83.08
2023-03-03T09:52:31.894Z,83.04
2023-03-03T09:53:44.621Z,82.46
2023-03-03T09:54:55.582Z,84.45
2023-03-03T09:56:00.266Z,83.64
2023-03-03T09:57:05.550Z,83.59
2023-03-03T09:58:16.645Z,83.40
2023-03-03T09:59:27.057Z,85.41
2023-03-03T10:00:36.397Z,84.55
2023-03-03T10:01:48.387Z,82.85
2023-03-03T10:03:03.472Z,82.17
2023-03-03T10:04:41.685Z,81.04
2023-03-03T10:05:48.744Z,79.48
2023-03-03T10:06:55.658Z,80.28
2023-03-03T10:08:03.408Z,80.71
2023-03-03T10:09:14.438Z,82.04
2023-03-03T10:10:41.597Z,80.23
2023-03-03T10:11:46.610Z,78.23
2023-03-03T10:12:53.720Z,79.26
2023-03-03T10:14:16.467Z,78.15
2023-03-03T10:15:41.010Z,77.48
2023-03-03T10:17:01.908Z,76.65
2023-03-03T10:18:12.223Z,75.82
2023-03-03T10:19:21.272Z,75.84
2023-03-03T10:20:47.554Z,75.50
2023-03-03T10:21:52.549Z,74.42
2023-03-03T10:22:56.108Z,72.82
2023-03-03T10:24:03.133Z,75.37
2023-03-03T10:25:13.512Z,77.54
2023-03-03T10:26:20.238Z,77.65
2023-03-03T10:27:29.645Z,78.08
2023-03-03T10:29:00.683Z,78.97
2023-03-03T10:30:06.868Z,77.63
2023-03-03T10:31:15.553Z,77.73
2023-03-03T10:32:38.139Z,77.60
2023-03-03T10:33:44.071Z,81.48
2023-03-03T10:34:54.273Z,82.23
2023-03-03T10:36:07.513Z,80.91
2023-03-03T10:37:11.284Z,82.79
2023-03-03T10:38:33.156Z,83.65
2023-03-03T10:39:49.189Z,82.45
2023-03-03T10:40:51.839Z,81.99
2023-03-03T10:42:04.606Z,80.73
2023-03-03T10:43:29.751Z,77.53
2023-03-03T10:44:45.390Z,77.02
2023-03-03T10:46:14.597Z,76.21
2023-03-03T10:47:34.097Z,75.08
2023-03-03T10:48:46.458Z,74.42
2023-03-03T10:49:55.810Z,74.18
2023-03-03T10:51:02.353Z,74.75
2023-03-03T10:52:23.316Z,73.52
2023-03-03T10:53:27.967Z,72.01
2023-03-03T10:54:39.499Z,72.00
2023-03-03T10:55:46.582Z,70.00
2023-03-03T10:56:53.193Z,69.95
2023-03-03T10:58:28.299Z,68.47
2023-03-03T10:59:46.975Z,68.99
2023-03-03T11:00:50.123Z,68.79
2023-03-03T11:01:54.214Z,67.58
2023-03-03T11:03:29.492Z,67.00
2023-03-03T11:05:02.175Z,66.25
2023-03-03T11:06:06.455Z,65.79
2023-03-03T11:07:10.940Z,64.92
2023-03-03T11:08:15.359Z,65.12
2023-03-03T11:09:27.969Z,62.83
2023-03-03T11:10:47.987Z,62.79
2023-03-03T11:11:55.441Z,62.19
2023-03-03T11:13:10.670Z,62.92
2023-03-03T11:14:14.184Z,63.14
2023-03-03T11:15:34.434Z,62.42
2023-03-03T11:16:51.737Z,61.08
2023-03-03T11:18:06.053Z,59.62
2023-03-03T11:19:33.822Z,60.48
2023-03-03T11:20:39.650Z,58.25
2023-03-03T11:21:44.469Z,58.51
2023-03-03T11:22:48.590Z,57.67
2023-03-03T11:24:02.609Z,56.72
2023-03-03T11:25:12.531Z,56.83
2023-03-03T11:26:17.221Z,57.56
2023-03-03T11:27:28.635Z,56.98
2023-03-03T11:28:37.655Z,56.21
2023-03-03T11:29:52.836Z,56.62
2023-03-03T11:31:03.102Z,55.40
2023-03-03T11:32:13.900Z,54.26
2023-03-03T11:33:19.911Z,52.66
2023-03-03T11:34:32.517Z,52.65
2023-03-03T11:35:42.106Z,53.44
2023-03-03T11:36:47.069Z,52.35
2023-03-03T11:37:55.499Z,53.54
2023-03-03T11:38:58.232Z,53.96
2023-03-03T11:40:03.685Z,52.99
2023-03-03T11:41:08.478Z,52.73
2023-03-03T11:42:17.053Z,54.50
2023-03-03T11:43:35.382Z,54.59
2023-03-03T11:44:39.631Z,55.95
2023-03-03T11:45:42.882Z,54.13
2023-03-03T11:46:47.382Z,53.61
2023-03-03T11:47:53.639Z,54.47
2023-03-03T11:48:59.497Z,54.45
2023-03-03T11:50:03.461Z,53.47
2023-03-03T11:51:06.456Z,52.71
2023-03-03T11:52:17.490Z,51.84
2023-03-03T11:53:29.858Z,51.49
2023-03-03T11:54:34.047Z,52.40
2023-03-03T11:55:36.967Z,50.27
2023-03-03T11:56:41.573Z,51.42
2023-03-03T11:57:45.509Z,51.48
2023-03-03T11:58:49.077Z,50.33
2023-03-03T12:00:12.838Z,50.51
2023-03-03T12:01:18.302Z,50.41
2023-03-03T12:02:43.891Z,51.01
2023-03-03T12:03:47.691Z,51.94
2023-03-03T12:04:52.090Z,52.80
2023-03-03T12:05:57.541Z,54.17
2023-03-03T12:07:19.012Z,53.15
2023-03-03T12:08:31.640Z,54.01
2023-03-03T12:09:39.132Z,54.52
2023-03-03T12:10:43.255Z,54.78
2023-03-03T12:11:51.650Z,55.71
2023-03-03T12:12:59.742Z,56.85
2023-03-03T12:14:03.860Z,57.45
2023-03-03T12:15:12.132Z,57.43
2023-03-03T12:16:17.190Z,56.76
2023-03-03T12:17:27.180Z,54.63
2023-03-03T12:18:51.144Z,57.59
2023-03-03T12:19:55.307Z,58.39
2023-03-03T12:21:04.316Z,56.85
2023-03-03T12:22:12.110Z,57.09
2023-03-03T12:23:22.367Z,56.18
2023-03-03T12:24:31.177Z,56.59
2023-03-03T12:25:36.495Z,56.21
2023-03-03T12:26:43.282Z,56.73
2023-03-03T12:27:49.913Z,57.42
2023-03-03T12:28:54.813Z,57.60
2023-03-03T12:30:05.117Z,56.08
2023-03-03T12:31:14.952Z,55.78
2023-03-03T12:32:22.484Z,56.12
2023-03-03T12:33:29.883Z,54.39
2023-03-03T12:34:35.235Z,55.16
2023-03-03T12:35:41.399Z,54.66
2023-03-03T12:36:50.804Z,55.23
2023-03-03T12:37:55.951Z,55.43
2023-03-03T12:39:00.680Z,56.70
2023-03-03T12:40:08.056Z,56.54
2023-03-03T12:41:14.917Z,54.24
2023-03-03T12:42:25.884Z,52.23
2023-03-03T12:43:42.293Z,52.23
2023-03-03T12:44:46.889Z,51.89
2023-03-03T12:45:56.402Z,51.00
2023-03-03T12:47:01.939Z,49.67
2023-03-03T12:48:08.473Z,50.06
2023-03-03T12:49:11.192Z,49.36
2023-03-03T12:50:26.118Z,47.20
2023-03-03T12:51:38.069Z,48.72
2023-03-03T12:52:45.494Z,49.82
2023-03-03T12:54:01.334Z,48.22
2023-03-03T12:55:06.134Z,45.21
2023-03-03T12:56:09.578Z,44.31
2023-03-03T12:57:16.585Z,42.96
2023-03-03T12:58:26.571Z,42.19
2023-03-03T12:59:33.369Z,42.61
2023-03-03T13:00:42.969Z,40.94
2023-03-03T13:01:53.241Z,41.78
2023-03-03T13:03:00.494Z,40.18
2023-03-03T13:04:06.339Z,39.17
2023-03-03T13:05:16.351Z,39.40
2023-03-03T13:06:23.422Z,41.38
2023-03-03T13:07:27.941Z,43.05
2023-03-03T13:08:35.117Z,43.07
2023-03-03T13:09:44.380Z,42.81
2023-03-03T13:10:46.945Z,43.41
2023-03-03T13:11:56.800Z,42.10
2023-03-03T13:12:59.657Z,42.14
2023-03-03T13:14:05.398Z,44.39
2023-03-03T13:15:15.956Z,44.33
2023-03-03T13:16:31.986Z,43.65
2023-03-03T13:17:44.109Z,42.09
2023-03-03T13:18:50.532Z,40.26
2023-03-03T13:19:56.105Z,40.51
2023-03-03T13:21:01.074Z,39.78
2023-03-03T13:22:08.670Z,40.09
2023-03-03T13:23:15.326Z,38.34
2023-03-03T13:24:20.540Z,37.76
2023-03-03T13:25:47.330Z,35.68
2023-03-03T13:26:50.962Z,34.90
2023-03-03T13:27:54.717Z,33.89
2023-03-03T13:29:03.546Z,33.59
2023-03-03T13:30:15.779Z,33.92
2023-03-03T13:31:19.981Z,32.49
2023-03-03T13:32:24.541Z,31.91
2023-03-03T13:33:27.359Z,30.17
2023-03-03T13:34:37.761Z,31.41
2023-03-03T13:35:42.014Z,32.48
2023-03-03T13:36:50.911Z,33.15
2023-03-03T13:37:54.051Z,32.10
2023-03-03T13:38:59.947Z,32.07
2023-03-03T13:40:03.709Z,31.78
2023-03-03T13:41:09.084Z,31.97
2023-03-03T13:42:15.904Z,32.97
2023-03-03T13:43:19.058Z,33.30
2023-03-03T13:44:24.138Z,32.73
2023-03-03T13:45:28.477Z,32.14
2023-03-03T13:46:37.208Z,32.38
2023-03-03T13:47:41.048Z,32.01